Time;durP1;ratioP1;P1;durP2;ratioP2;P2;SDS_P1;SDS_P2;PMS_P1;PMS_P2;Temp;Humidity;BMP_temperature;BMP_pressure;BME280_temperature;BME280_humidity;BME280_pressure;Samples;Min_cycle;Max_cycle;Signal;HPM_P1;HPM_P2
2022/02/17 00:02:00;;;;;;;26.70;17.70;;;;;;;;;;6245688;22;20106;-71
2022/02/17 00:04:26;;;;;;;26.08;16.65;;;;;;;;;;6273437;22;20047;-71
2022/02/17 00:06:52;;;;;;;41.58;21.42;;;;;;;;;;6245938;22;20019;-71
2022/02/17 00:09:18;;;;;;;24.90;15.63;;;;;;;;;;6273194;22;20016;-71
2022/02/17 00:11:44;;;;;;;37.28;24.45;;;;;;;;;;6245902;22;20369;-71
2022/02/17 00:14:10;;;;;;;39.03;25.92;;;;;;;;;;6273337;22;20022;-72
2022/02/17 00:16:35;;;;;;;36.67;23.58;;;;;;;;;;6273180;22;20035;-71
2022/02/17 00:19:02;;;;;;;34.95;20.65;;;;;;;;;;6273425;22;20012;-71
2022/02/17 00:21:28;;;;;;;40.08;25.25;;;;;;;;;;6273342;22;20456;-70
2022/02/17 00:23:54;;;;;;;36.22;19.25;;;;;;;;;;6245702;22;20008;-72
2022/02/17 00:26:20;;;;;;;37.67;22.98;;;;;;;;;;6245981;22;20036;-72
2022/02/17 00:28:46;;;;;;;32.78;19.80;;;;;;;;;;6245872;22;20065;-69
2022/02/17 00:31:12;;;;;;;40.35;22.08;;;;;;;;;;6246060;22;20015;-71
2022/02/17 00:33:40;;;;;;;35.17;19.75;;;;;;;;;;6272424;22;20024;-71
2022/02/17 00:36:08;;;;;;;39.72;20.15;;;;;;;;;;6272797;22;20015;-72
2022/02/17 00:38:35;;;;;;;33.78;21.33;;;;;;;;;;6273044;22;20094;-73
2022/02/17 00:41:02;;;;;;;38.80;22.88;;;;;;;;;;6271973;22;20037;-72
2022/02/17 00:43:28;;;;;;;30.45;18.33;;;;;;;;;;6272759;22;20069;-71
2022/02/17 00:45:54;;;;;;;25.30;15.60;;;;;;;;;;6245570;22;20023;-71
2022/02/17 00:48:22;;;;;;;28.92;16.02;;;;;;;;;;6195889;22;20034;-72
2022/02/17 00:50:49;;;;;;;22.77;13.13;;;;;;;;;;6220643;22;20011;-72
2022/02/17 00:53:15;;;;;;;27.75;17.13;;;;;;;;;;6220331;22;20027;-72
2022/02/17 00:55:41;;;;;;;27.83;16.80;;;;;;;;;;6220426;22;20073;-70
2022/02/17 00:58:07;;;;;;;35.38;19.95;;;;;;;;;;6245546;22;20023;-71
2022/02/17 01:00:34;;;;;;;28.25;18.65;;;;;;;;;;6220856;22;20027;-73
2022/02/17 01:03:06;;;;;;;30.75;16.67;;;;;;;;;;6245415;22;20016;-73
2022/02/17 01:05:32;;;;;;;50.80;26.48;;;;;;;;;;6272784;22;20142;-72
2022/02/17 01:08:17;;;;;;;34.78;20.52;;;;;;;;;;6272606;22;20035;-72
2022/02/17 01:10:43;;;;;;;33.55;18.80;;;;;;;;;;6272681;22;20329;-72
2022/02/17 01:13:09;;;;;;;30.67;17.60;;;;;;;;;;6245225;22;20507;-72
2022/02/17 01:15:35;;;;;;;23.73;14.45;;;;;;;;;;6195540;22;20038;-72
2022/02/17 01:18:02;;;;;;;28.05;17.23;;;;;;;;;;6245240;22;20011;-72
2022/02/17 01:20:50;;;;;;;22.00;14.93;;;;;;;;;;6249634;22;20046;-72
2022/02/17 01:23:16;;;;;;;32.40;17.67;;;;;;;;;;6245268;22;20016;-72
2022/02/17 01:25:43;;;;;;;26.88;15.90;;;;;;;;;;6245449;22;20081;-71
2022/02/17 01:28:10;;;;;;;36.30;22.65;;;;;;;;;;6245744;22;20023;-71
2022/02/17 01:30:35;;;;;;;20.05;14.27;;;;;;;;;;6246006;22;20142;-72
2022/02/17 01:33:03;;;;;;;15.93;11.50;;;;;;;;;;6245197;22;20016;-72
2022/02/17 01:35:29;;;;;;;25.88;14.48;;;;;;;;;;6245605;22;20387;-72
2022/02/17 01:38:13;;;;;;;20.80;15.88;;;;;;;;;;6198774;22;20022;-71
2022/02/17 01:40:39;;;;;;;21.73;14.15;;;;;;;;;;6272699;22;20018;-72
2022/02/17 01:43:06;;;;;;;17.23;12.70;;;;;;;;;;6271949;22;20403;-71
2022/02/17 01:45:50;;;;;;;26.50;15.48;;;;;;;;;;6227947;22;20050;-72
2022/02/17 01:48:16;;;;;;;32.08;20.73;;;;;;;;;;6245457;22;20019;-73
2022/02/17 01:50:47;;;;;;;33.13;18.37;;;;;;;;;;6220357;22;20016;-72
2022/02/17 01:53:13;;;;;;;23.50;12.77;;;;;;;;;;6222124;22;20034;-71
2022/02/17 01:55:40;;;;;;;19.90;12.00;;;;;;;;;;6273712;22;20441;-71
2022/02/17 01:58:06;;;;;;;28.70;16.15;;;;;;;;;;6272763;22;20011;-73
2022/02/17 02:00:32;;;;;;;28.25;17.40;;;;;;;;;;6246161;22;20051;-72
2022/02/17 02:03:04;;;;;;;42.92;23.10;;;;;;;;;;6246483;22;20018;-70
2022/02/17 02:05:53;;;;;;;22.02;14.40;;;;;;;;;;6255917;22;20043;-72
2022/02/17 02:08:19;;;;;;;27.33;16.33;;;;;;;;;;6220114;22;20027;-72
2022/02/17 02:10:46;;;;;;;25.23;14.80;;;;;;;;;;6245666;22;20137;-72
2022/02/17 02:13:12;;;;;;;13.68;8.40;;;;;;;;;;6219910;22;20040;-72
2022/02/17 02:15:47;;;;;;;20.40;15.13;;;;;;;;;;6245477;22;20015;-72
2022/02/17 02:18:14;;;;;;;29.60;17.58;;;;;;;;;;6245361;22;20464;-72
2022/02/17 02:20:45;;;;;;;20.35;14.13;;;;;;;;;;6245262;22;20016;-71
2022/02/17 02:23:11;;;;;;;29.70;16.83;;;;;;;;;;6244802;22;20090;-72
2022/02/17 02:25:37;;;;;;;32.05;18.85;;;;;;;;;;6272400;22;20046;-71
2022/02/17 02:28:03;;;;;;;33.70;21.30;;;;;;;;;;6244546;22;20020;-72
2022/02/17 02:30:29;;;;;;;32.17;21.08;;;;;;;;;;6245355;22;20014;-71
2022/02/17 02:32:55;;;;;;;22.83;15.30;;;;;;;;;;6244800;22;20023;-72
2022/02/17 02:35:26;;;;;;;;;;;;;;;;;;6221982;22;20090;-71
2022/02/17 02:37:52;;;;;;;28.50;16.77;;;;;;;;;;6244701;22;19976;-70
2022/02/17 02:40:25;;;;;;;20.02;14.48;;;;;;;;;;6221721;22;20012;-72
2022/02/17 02:42:55;;;;;;;26.40;17.50;;;;;;;;;;6245239;22;20015;-71
2022/02/17 02:45:21;;;;;;;25.08;16.00;;;;;;;;;;6273349;22;20073;-71
2022/02/17 02:47:47;;;;;;;15.52;11.60;;;;;;;;;;6220034;22;20463;-72
2022/02/17 02:50:13;;;;;;;28.65;16.60;;;;;;;;;;6271999;22;20018;-71
2022/02/17 02:52:39;;;;;;;22.92;15.23;;;;;;;;;;6244937;22;20012;-72
2022/02/17 02:55:05;;;;;;;31.35;21.08;;;;;;;;;;6244766;22;20047;-71
2022/02/17 02:57:34;;;;;;;38.75;23.90;;;;;;;;;;6197581;22;20102;-72
2022/02/17 03:00:02;;;;;;;24.73;14.45;;;;;;;;;;6246680;22;20418;-71
2022/02/17 03:02:29;;;;;;;40.85;24.10;;;;;;;;;;6247084;22;20368;-72
2022/02/17 03:04:55;;;;;;;37.25;20.08;;;;;;;;;;6246363;22;20042;-72
2022/02/17 03:07:21;;;;;;;32.88;19.00;;;;;;;;;;6273462;22;20024;-72
2022/02/17 03:09:48;;;;;;;41.28;23.00;;;;;;;;;;6222104;22;20043;-72
2022/02/17 03:12:15;;;;;;;45.58;26.80;;;;;;;;;;6246423;22;20016;-72
2022/02/17 03:14:43;;;;;;;40.67;24.38;;;;;;;;;;6246666;22;20347;-72
2022/02/17 03:17:15;;;;;;;26.40;16.80;;;;;;;;;;6220816;22;20019;-73
2022/02/17 03:19:41;;;;;;;38.72;23.63;;;;;;;;;;6246464;22;20011;-72
2022/02/17 03:22:10;;;;;;;42.47;21.77;;;;;;;;;;6245939;22;20197;-72
2022/02/17 03:24:39;;;;;;;46.40;21.42;;;;;;;;;;6222475;22;20012;-71
2022/02/17 03:27:05;;;;;;;36.05;21.40;;;;;;;;;;6273458;22;20098;-71
2022/02/17 03:29:32;;;;;;;47.58;26.67;;;;;;;;;;6246646;22;20015;-71
2022/02/17 03:32:02;;;;;;;55.20;28.60;;;;;;;;;;6245969;22;20031;-72
2022/02/17 03:34:28;;;;;;;42.63;21.02;;;;;;;;;;6246669;22;20018;-71
2022/02/17 03:36:54;;;;;;;43.10;23.30;;;;;;;;;;6221111;22;20021;-72
2022/02/17 03:39:22;;;;;;;35.75;20.08;;;;;;;;;;6246273;22;20012;-72
2022/02/17 03:41:53;;;;;;;43.95;20.95;;;;;;;;;;6273706;22;20095;-72
2022/02/17 03:44:22;;;;;;;34.08;18.20;;;;;;;;;;6246306;22;20019;-72
2022/02/17 03:46:52;;;;;;;32.38;20.23;;;;;;;;;;6246268;22;20012;-72
2022/02/17 03:49:27;;;;;;;27.33;15.90;;;;;;;;;;6246478;22;20012;-72
2022/02/17 03:51:53;;;;;;;34.67;16.90;;;;;;;;;;6221164;22;20090;-72
2022/02/17 03:54:20;;;;;;;34.88;19.13;;;;;;;;;;6246199;22;20478;-72
2022/02/17 03:56:53;;;;;;;48.22;27.27;;;;;;;;;;6246428;22;20034;-72
2022/02/17 03:59:40;;;;;;;30.10;17.08;;;;;;;;;;6246288;22;20007;-72
2022/02/17 04:02:07;;;;;;;32.67;18.42;;;;;;;;;;6220848;22;20029;-71
2022/02/17 04:04:33;;;;;;;42.85;20.88;;;;;;;;;;6273409;22;20095;-72
2022/02/17 04:06:59;;;;;;;45.20;22.13;;;;;;;;;;6245784;22;20012;-72
2022/02/17 04:09:25;;;;;;;25.48;15.45;;;;;;;;;;6245146;22;20023;-72
2022/02/17 04:11:51;;;;;;;26.58;16.05;;;;;;;;;;6219832;22;20019;-71
2022/02/17 04:14:18;;;;;;;32.42;18.65;;;;;;;;;;6219365;22;20020;-72
2022/02/17 04:16:50;;;;;;;37.03;22.33;;;;;;;;;;6245092;22;20094;-71
2022/02/17 04:19:42;;;;;;;34.50;18.50;;;;;;;;;;6236177;22;20023;-72
2022/02/17 04:22:28;;;;;;;32.75;17.30;;;;;;;;;;6211925;22;20020;-72
2022/02/17 04:25:15;;;;;;;19.38;12.73;;;;;;;;;;6244668;22;20012;-72
2022/02/17 04:27:42;;;;;;;34.03;16.23;;;;;;;;;;6245088;22;20502;-71
2022/02/17 04:30:10;;;;;;;21.88;13.38;;;;;;;;;;6245434;22;20011;-72
2022/02/17 04:32:36;;;;;;;19.52;13.13;;;;;;;;;;6245866;22;20333;-71
2022/02/17 04:35:02;;;;;;;28.25;15.02;;;;;;;;;;6245466;22;20008;-72
2022/02/17 04:37:28;;;;;;;22.25;12.95;;;;;;;;;;6246162;22;20026;-70
2022/02/17 04:39:55;;;;;;;18.38;11.65;;;;;;;;;;6220140;22;20007;-71
2022/02/17 04:42:40;;;;;;;22.95;11.90;;;;;;;;;;6272957;22;20421;-71
2022/02/17 04:45:07;;;;;;;30.80;17.92;;;;;;;;;;6245358;22;20043;-72
2022/02/17 04:47:33;;;;;;;16.98;11.35;;;;;;;;;;6220389;22;20341;-72
2022/02/17 04:49:59;;;;;;;19.23;13.18;;;;;;;;;;6245507;22;20387;-73
2022/02/17 04:52:25;;;;;;;10.70;9.00;;;;;;;;;;6245739;22;20103;-71
2022/02/17 04:54:52;;;;;;;11.85;10.40;;;;;;;;;;6246072;22;20445;-71
2022/02/17 04:57:18;;;;;;;19.20;12.50;;;;;;;;;;6245714;22;20515;-71
2022/02/17 04:59:44;;;;;;;15.98;8.93;;;;;;;;;;6273370;22;20018;-72
2022/02/17 05:02:10;;;;;;;16.55;10.68;;;;;;;;;;6220698;22;20114;-72
2022/02/17 05:04:41;;;;;;;10.88;9.00;;;;;;;;;;6272728;22;20008;-72
2022/02/17 05:07:11;;;;;;;13.52;11.57;;;;;;;;;;6220926;22;20023;-71
2022/02/17 05:09:37;;;;;;;11.65;9.50;;;;;;;;;;6245541;22;20007;-71
2022/02/17 05:12:03;;;;;;;17.38;10.88;;;;;;;;;;6219842;22;20102;-72
2022/02/17 05:14:31;;;;;;;13.73;8.65;;;;;;;;;;6245578;22;20081;-72
2022/02/17 05:16:57;;;;;;;9.07;8.18;;;;;;;;;;6245822;22;20046;-72
2022/02/17 05:19:26;;;;;;;8.35;6.47;;;;;;;;;;6245170;22;20564;-72
2022/02/17 05:22:14;;;;;;;10.98;9.65;;;;;;;;;;6272168;22;20368;-72
2022/02/17 05:24:59;;;;;;;12.40;9.52;;;;;;;;;;6271638;22;20016;-73
2022/02/17 05:27:43;;;;;;;16.13;12.48;;;;;;;;;;6244931;22;20024;-72
2022/02/17 05:30:14;;;;;;;12.65;8.10;;;;;;;;;;6246533;22;20008;-73
2022/02/17 05:33:01;;;;;;;15.23;12.50;;;;;;;;;;6246084;22;20015;-72
2022/02/17 05:35:33;;;;;;;11.52;8.82;;;;;;;;;;6244700;22;20011;-74
2022/02/17 05:38:12;;;;;;;8.93;7.72;;;;;;;;;;6215191;22;20106;-73
2022/02/17 05:41:09;;;;;;;8.73;7.07;;;;;;;;;;6091573;22;20017;-73
2022/02/17 05:43:36;;;;;;;17.35;10.43;;;;;;;;;;6193287;22;20122;-73
2022/02/17 05:46:04;;;;;;;8.85;7.05;;;;;;;;;;6192530;22;20019;-75
2022/02/17 05:48:30;;;;;;;9.82;8.10;;;;;;;;;;6244350;22;20540;-75
2022/02/17 05:50:56;;;;;;;8.68;7.30;;;;;;;;;;6218145;22;20008;-74
2022/02/17 05:53:22;;;;;;;10.40;9.30;;;;;;;;;;6242924;22;20018;-74
2022/02/17 05:55:48;;;;;;;8.68;7.78;;;;;;;;;;6217053;22;20046;-74
2022/02/17 05:58:14;;;;;;;11.10;9.25;;;;;;;;;;6216215;22;20016;-74
2022/02/17 06:00:41;;;;;;;14.27;11.45;;;;;;;;;;6192841;22;20015;-74
2022/02/17 06:03:08;;;;;;;10.55;8.27;;;;;;;;;;6243027;22;20149;-75
2022/02/17 06:05:41;;;;;;;9.95;8.20;;;;;;;;;;6219973;22;20093;-74
2022/02/17 06:08:08;;;;;;;10.73;8.70;;;;;;;;;;6217938;22;20391;-75
2022/02/17 06:10:34;;;;;;;8.77;7.88;;;;;;;;;;6217938;22;20460;-74
2022/02/17 06:13:00;;;;;;;10.48;9.38;;;;;;;;;;6192834;22;20011;-74
2022/02/17 06:15:27;;;;;;;7.13;6.40;;;;;;;;;;6218417;22;20406;-72
2022/02/17 06:17:53;;;;;;;12.93;8.18;;;;;;;;;;6270388;22;20022;-74
2022/02/17 06:20:19;;;;;;;12.50;9.48;;;;;;;;;;6242780;22;20012;-73
2022/02/17 06:22:49;;;;;;;13.23;10.88;;;;;;;;;;6269575;22;20012;-73
2022/02/17 06:25:16;;;;;;;15.32;9.98;;;;;;;;;;6192601;22;20011;-73
2022/02/17 06:27:42;;;;;;;11.57;8.45;;;;;;;;;;6269885;22;20019;-73
2022/02/17 06:30:08;;;;;;;12.10;9.85;;;;;;;;;;6217580;22;20016;-72
2022/02/17 06:32:34;;;;;;;14.20;12.90;;;;;;;;;;6244829;22;20022;-72
2022/02/17 06:35:01;;;;;;;11.93;10.73;;;;;;;;;;6245110;22;20044;-73
2022/02/17 06:37:28;;;;;;;10.95;8.95;;;;;;;;;;6245061;22;20012;-73
2022/02/17 06:39:56;;;;;;;11.68;10.13;;;;;;;;;;6220180;22;20011;-72
2022/02/17 06:42:22;;;;;;;13.35;10.52;;;;;;;;;;6244650;22;20096;-72
2022/02/17 06:44:47;;;;;;;10.55;9.55;;;;;;;;;;6272077;22;20083;-73
2022/02/17 06:47:14;;;;;;;11.38;9.52;;;;;;;;;;6244781;22;20023;-72
2022/02/17 06:49:40;;;;;;;11.18;10.07;;;;;;;;;;6245117;22;20455;-73
2022/02/17 06:52:06;;;;;;;10.57;9.50;;;;;;;;;;6245364;22;20015;-73
2022/02/17 06:54:33;;;;;;;10.18;9.18;;;;;;;;;;6272803;22;20014;-73
2022/02/17 06:56:59;;;;;;;7.00;6.38;;;;;;;;;;6273033;22;20011;-72
2022/02/17 06:59:25;;;;;;;9.70;7.88;;;;;;;;;;6272324;22;20012;-73
2022/02/17 07:01:51;;;;;;;9.63;7.07;;;;;;;;;;6244544;22;20074;-73
2022/02/17 07:04:18;;;;;;;9.15;8.15;;;;;;;;;;6271246;22;20169;-73
2022/02/17 07:06:51;;;;;;;7.80;6.80;;;;;;;;;;6272785;22;20459;-73
2022/02/17 07:09:27;;;;;;;10.80;9.73;;;;;;;;;;6222159;22;20071;-73
2022/02/17 07:11:55;;;;;;;12.80;11.50;;;;;;;;;;6246680;22;20008;-74
2022/02/17 07:14:23;;;;;;;9.35;8.45;;;;;;;;;;6271285;22;20073;-73
2022/02/17 07:16:56;;;;;;;9.02;8.13;;;;;;;;;;6271794;22;20091;-73
2022/02/17 07:19:41;;;;;;;10.25;9.00;;;;;;;;;;6249567;22;20038;-75
2022/02/17 07:22:07;;;;;;;8.48;7.40;;;;;;;;;;6243644;22;20456;-73
2022/02/17 07:24:33;;;;;;;12.10;10.30;;;;;;;;;;6271631;22;20035;-73
2022/02/17 07:26:58;;;;;;;10.00;9.02;;;;;;;;;;6244478;22;20452;-72
2022/02/17 07:29:24;;;;;;;11.52;10.52;;;;;;;;;;6271735;22;20022;-73
2022/02/17 07:31:52;;;;;;;8.73;7.93;;;;;;;;;;6269550;22;20007;-73
2022/02/17 07:34:19;;;;;;;7.97;7.18;;;;;;;;;;6270741;22;20022;-74
2022/02/17 07:36:45;;;;;;;9.80;8.90;;;;;;;;;;6223612;22;20356;-74
2022/02/17 07:39:11;;;;;;;12.13;9.68;;;;;;;;;;6291252;22;20008;-77
2022/02/17 07:41:37;;;;;;;12.43;10.63;;;;;;;;;;6288478;22;20045;-75
2022/02/17 07:44:04;;;;;;;12.95;10.48;;;;;;;;;;6235350;22;20027;-74
2022/02/17 07:46:31;;;;;;;13.77;12.38;;;;;;;;;;6276656;22;20023;-73
2022/02/17 07:48:57;;;;;;;13.73;11.25;;;;;;;;;;6219196;22;20518;-74
2022/02/17 07:51:23;;;;;;;8.02;7.22;;;;;;;;;;6268338;22;20011;-72
2022/02/17 07:53:49;;;;;;;10.45;9.48;;;;;;;;;;6244039;22;20016;-72
2022/02/17 07:56:14;;;;;;;10.30;8.98;;;;;;;;;;6270618;22;20011;-71
2022/02/17 07:58:41;;;;;;;9.68;8.20;;;;;;;;;;6271509;22;20027;-73
2022/02/17 08:01:08;;;;;;;7.93;7.22;;;;;;;;;;6243672;22;20024;-74
2022/02/17 08:03:53;;;;;;;11.00;9.82;;;;;;;;;;6271470;22;20027;-74
2022/02/17 08:06:43;;;;;;;10.45;9.45;;;;;;;;;;6271384;22;20077;-74
2022/02/17 08:09:09;;;;;;;18.88;13.75;;;;;;;;;;6270709;22;20020;-74
2022/02/17 08:11:36;;;;;;;12.50;11.23;;;;;;;;;;6244054;22;20356;-73
2022/02/17 08:14:02;;;;;;;9.63;8.68;;;;;;;;;;6243687;22;20017;-73
2022/02/17 08:16:28;;;;;;;11.05;8.95;;;;;;;;;;6243358;22;20018;-73
2022/02/17 08:18:54;;;;;;;10.38;9.38;;;;;;;;;;6270811;22;20011;-73
2022/02/17 08:21:21;;;;;;;13.18;10.95;;;;;;;;;;6270445;22;20041;-73
2022/02/17 08:23:47;;;;;;;14.60;12.73;;;;;;;;;;6243725;22;20016;-72
2022/02/17 08:26:13;;;;;;;8.73;7.65;;;;;;;;;;6270705;22;20007;-74
2022/02/17 08:28:39;;;;;;;10.80;8.55;;;;;;;;;;6271007;22;20024;-74
2022/02/17 08:31:05;;;;;;;14.13;10.27;;;;;;;;;;6269819;22;20012;-75
2022/02/17 08:33:32;;;;;;;10.60;9.50;;;;;;;;;;6270862;22;20011;-74
2022/02/17 08:35:58;;;;;;;11.57;10.23;;;;;;;;;;6271773;22;20113;-73
2022/02/17 08:38:31;;;;;;;11.65;8.27;;;;;;;;;;6271065;22;20090;-74
2022/02/17 08:40:58;;;;;;;12.38;10.85;;;;;;;;;;6270574;22;20011;-72
2022/02/17 08:43:24;;;;;;;13.95;10.85;;;;;;;;;;6270584;22;20101;-73
2022/02/17 08:45:50;;;;;;;9.93;8.75;;;;;;;;;;6270525;22;20050;-74
2022/02/17 08:48:16;;;;;;;11.55;10.35;;;;;;;;;;6270323;22;20086;-73
2022/02/17 08:50:44;;;;;;;13.85;12.13;;;;;;;;;;6270631;22;20017;-73
2022/02/17 08:53:10;;;;;;;12.23;10.75;;;;;;;;;;6270872;22;20011;-74
2022/02/17 08:55:35;;;;;;;13.00;11.68;;;;;;;;;;6243998;22;20137;-73
2022/02/17 08:58:02;;;;;;;10.45;9.07;;;;;;;;;;6270694;22;20074;-74
2022/02/17 09:00:28;;;;;;;8.70;7.90;;;;;;;;;;6270228;22;20687;-73
2022/02/17 09:02:54;;;;;;;11.45;9.80;;;;;;;;;;6244010;22;20078;-73
2022/02/17 09:05:20;;;;;;;12.48;11.27;;;;;;;;;;6269977;22;20015;-73
2022/02/17 09:07:47;;;;;;;10.40;7.63;;;;;;;;;;6218874;22;20412;-73
2022/02/17 09:10:12;;;;;;;10.90;9.80;;;;;;;;;;6243240;22;20073;-73
2022/02/17 09:12:38;;;;;;;19.13;13.00;;;;;;;;;;6218727;22;20011;-72
2022/02/17 09:15:05;;;;;;;12.00;9.30;;;;;;;;;;6270369;22;20007;-74
2022/02/17 09:17:31;;;;;;;12.18;10.40;;;;;;;;;;6270455;22;20019;-73
2022/02/17 09:19:57;;;;;;;13.48;10.18;;;;;;;;;;6270657;22;20007;-72
2022/02/17 09:22:23;;;;;;;14.80;13.35;;;;;;;;;;6242968;22;20035;-73
2022/02/17 09:24:49;;;;;;;13.93;11.20;;;;;;;;;;6243020;22;20016;-72
2022/02/17 09:27:15;;;;;;;12.32;11.13;;;;;;;;;;6269333;22;20095;-72
2022/02/17 09:29:42;;;;;;;13.60;12.20;;;;;;;;;;6268334;22;20022;-73
2022/02/17 09:32:09;;;;;;;15.85;12.02;;;;;;;;;;6268195;22;20007;-73
2022/02/17 09:34:34;;;;;;;13.13;11.70;;;;;;;;;;6268332;22;20452;-72
2022/02/17 09:37:01;;;;;;;13.60;12.18;;;;;;;;;;6241950;22;20045;-73
2022/02/17 09:39:28;;;;;;;16.83;12.27;;;;;;;;;;6241203;22;20008;-73
2022/02/17 09:41:55;;;;;;;12.98;10.32;;;;;;;;;;6270766;22;20031;-72
2022/02/17 09:44:21;;;;;;;13.55;11.32;;;;;;;;;;6243004;22;20544;-72
2022/02/17 09:46:47;;;;;;;12.13;10.93;;;;;;;;;;6267622;22;20022;-72
2022/02/17 09:49:14;;;;;;;12.68;11.38;;;;;;;;;;6267303;22;20026;-72
2022/02/17 09:51:40;;;;;;;15.30;12.27;;;;;;;;;;6268011;22;20012;-71
2022/02/17 09:54:06;;;;;;;13.50;12.13;;;;;;;;;;6241121;22;20069;-72
2022/02/17 09:56:34;;;;;;;14.10;9.43;;;;;;;;;;6268375;22;20012;-72
2022/02/17 09:59:01;;;;;;;13.90;11.95;;;;;;;;;;6241747;22;20102;-71
2022/02/17 10:01:27;;;;;;;12.27;11.02;;;;;;;;;;6269680;22;20023;-72
2022/02/17 10:04:12;;;;;;;13.43;12.15;;;;;;;;;;6243541;22;20012;-72
2022/02/17 10:06:42;;;;;;;12.73;10.48;;;;;;;;;;6245581;22;20018;-71
2022/02/17 10:09:08;;;;;;;12.13;10.82;;;;;;;;;;6271876;22;20027;-73
2022/02/17 10:11:34;;;;;;;10.85;9.80;;;;;;;;;;6272604;22;20011;-73
2022/02/17 10:14:01;;;;;;;12.52;11.23;;;;;;;;;;6220068;22;20043;-72
2022/02/17 10:16:27;;;;;;;10.63;9.52;;;;;;;;;;6272597;22;20390;-72
2022/02/17 10:18:54;;;;;;;15.10;11.38;;;;;;;;;;6272934;22;20008;-72
2022/02/17 10:21:21;;;;;;;16.42;12.95;;;;;;;;;;6272039;22;20070;-72
2022/02/17 10:23:47;;;;;;;16.95;14.05;;;;;;;;;;6220013;22;20360;-72
2022/02/17 10:26:16;;;;;;;15.48;13.80;;;;;;;;;;6272428;22;20012;-72
2022/02/17 10:28:42;;;;;;;13.80;12.25;;;;;;;;;;6272191;22;20077;-73
2022/02/17 10:31:09;;;;;;;16.45;14.55;;;;;;;;;;6272005;22;20050;-71
2022/02/17 10:33:44;;;;;;;10.82;9.57;;;;;;;;;;6245248;22;20011;-71
2022/02/17 10:36:11;;;;;;;15.05;12.27;;;;;;;;;;6272062;22;20061;-72
2022/02/17 10:38:37;;;;;;;14.20;10.32;;;;;;;;;;6245224;22;20058;-72
2022/02/17 10:41:04;;;;;;;18.85;13.90;;;;;;;;;;6271775;22;20016;-72
2022/02/17 10:43:30;;;;;;;17.60;13.77;;;;;;;;;;6272376;22;20348;-72
2022/02/17 10:46:07;;;;;;;23.50;12.55;;;;;;;;;;6272339;22;20099;-72
2022/02/17 10:48:33;;;;;;;12.63;11.38;;;;;;;;;;6271740;22;20023;-72
2022/02/17 10:51:06;;;;;;;12.63;9.23;;;;;;;;;;6272633;22;20031;-72
2022/02/17 10:53:35;;;;;;;15.88;13.05;;;;;;;;;;6245315;22;20095;-71
2022/02/17 10:56:01;;;;;;;19.42;17.15;;;;;;;;;;6245613;22;20015;-72
2022/02/17 10:58:36;;;;;;;13.68;11.20;;;;;;;;;;6245382;22;20029;-72
2022/02/17 11:01:03;;;;;;;17.13;14.70;;;;;;;;;;6272358;22;20031;-72
2022/02/17 11:03:29;;;;;;;11.68;10.48;;;;;;;;;;6272772;22;20447;-72
2022/02/17 11:05:55;;;;;;;21.13;15.10;;;;;;;;;;6272732;22;20016;-72
2022/02/17 11:08:21;;;;;;;11.95;9.63;;;;;;;;;;6244885;22;20039;-72
2022/02/17 11:10:47;;;;;;;15.68;10.45;;;;;;;;;;6245222;22;20114;-72
2022/02/17 11:13:23;;;;;;;10.95;9.38;;;;;;;;;;6219993;22;20016;-71
2022/02/17 11:15:49;;;;;;;12.00;9.63;;;;;;;;;;6244830;22;20016;-72
2022/02/17 11:18:16;;;;;;;9.55;8.20;;;;;;;;;;6244243;22;20011;-73
2022/02/17 11:20:42;;;;;;;14.95;10.52;;;;;;;;;;6244144;22;20149;-72
2022/02/17 11:23:09;;;;;;;11.32;9.88;;;;;;;;;;6271680;22;20019;-72
2022/02/17 11:25:38;;;;;;;21.77;12.23;;;;;;;;;;6219125;22;20009;-72
2022/02/17 11:28:05;;;;;;;15.75;11.23;;;;;;;;;;6219194;22;20103;-72
2022/02/17 11:30:31;;;;;;;13.10;10.32;;;;;;;;;;6271226;22;20016;-72
2022/02/17 11:33:16;;;;;;;14.80;12.57;;;;;;;;;;6271682;22;20015;-72
2022/02/17 11:35:42;;;;;;;14.40;12.75;;;;;;;;;;6271775;22;20012;-72
2022/02/17 11:38:31;;;;;;;11.65;10.35;;;;;;;;;;6272348;22;20011;-72
2022/02/17 11:41:06;;;;;;;15.55;12.02;;;;;;;;;;6269657;22;20018;-72
2022/02/17 11:43:32;;;;;;;13.75;11.02;;;;;;;;;;6271165;22;20023;-73
2022/02/17 11:45:58;;;;;;;20.42;14.63;;;;;;;;;;6244508;22;20012;-72
2022/02/17 11:48:42;;;;;;;15.98;13.35;;;;;;;;;;6243556;22;20019;-73
2022/02/17 11:51:14;;;;;;;15.95;13.82;;;;;;;;;;6244038;22;20141;-74
2022/02/17 11:53:44;;;;;;;10.52;9.25;;;;;;;;;;6270756;22;20019;-74
2022/02/17 11:56:22;;;;;;;14.20;11.57;;;;;;;;;;6243914;22;20467;-73
2022/02/17 11:58:55;;;;;;;16.17;14.52;;;;;;;;;;6217689;22;20102;-73
2022/02/17 12:01:24;;;;;;;12.05;10.45;;;;;;;;;;6270292;22;20476;-73
2022/02/17 12:04:18;;;;;;;10.75;9.63;;;;;;;;;;6218206;22;20019;-73
2022/02/17 12:07:03;;;;;;;13.18;11.45;;;;;;;;;;6270892;22;20452;-73
2022/02/17 12:09:30;;;;;;;18.05;12.45;;;;;;;;;;6271600;22;20469;-74
2022/02/17 12:11:56;;;;;;;12.95;11.65;;;;;;;;;;6220084;22;20019;-75
2022/02/17 12:14:22;;;;;;;11.55;10.43;;;;;;;;;;6244352;22;20058;-74
2022/02/17 12:16:52;;;;;;;12.75;10.88;;;;;;;;;;6270409;22;20007;-73
2022/02/17 12:19:18;;;;;;;10.93;9.88;;;;;;;;;;6270505;22;20318;-73
2022/02/17 12:21:45;;;;;;;14.48;12.70;;;;;;;;;;6243512;22;20016;-73
2022/02/17 12:24:13;;;;;;;13.75;12.35;;;;;;;;;;6216624;22;20095;-76
2022/02/17 12:26:44;;;;;;;17.08;14.27;;;;;;;;;;6268636;22;20018;-76
2022/02/17 12:29:18;;;;;;;14.30;9.15;;;;;;;;;;6241583;22;20020;-76
2022/02/17 12:31:44;;;;;;;10.95;9.10;;;;;;;;;;6244353;22;20066;-77
2022/02/17 12:34:10;;;;;;;12.85;11.65;;;;;;;;;;6244022;22;20410;-76
2022/02/17 12:36:36;;;;;;;11.70;10.45;;;;;;;;;;6244245;22;20016;-76
2022/02/17 12:39:05;;;;;;;15.32;13.27;;;;;;;;;;6243002;22;20324;-76
2022/02/17 12:41:31;;;;;;;13.10;11.77;;;;;;;;;;6219321;22;20012;-76
2022/02/17 12:43:57;;;;;;;12.55;10.05;;;;;;;;;;6245861;22;20017;-76
2022/02/17 12:46:23;;;;;;;15.88;14.07;;;;;;;;;;6220873;22;20452;-75
2022/02/17 12:48:49;;;;;;;12.23;11.02;;;;;;;;;;6275933;22;20022;-76
2022/02/17 12:51:24;;;;;;;15.25;12.80;;;;;;;;;;6260844;22;20065;-74
2022/02/17 12:53:52;;;;;;;10.20;9.20;;;;;;;;;;6286927;22;20011;-75
2022/02/17 12:56:21;;;;;;;17.70;15.50;;;;;;;;;;6258718;22;20606;-75
2022/02/17 12:58:48;;;;;;;11.93;9.88;;;;;;;;;;6280982;22;20039;-74
2022/02/17 13:01:26;;;;;;;12.73;10.35;;;;;;;;;;6270446;22;20070;-74
2022/02/17 13:03:52;;;;;;;17.15;13.07;;;;;;;;;;6243172;22;20066;-75
2022/02/17 13:06:26;;;;;;;18.42;16.05;;;;;;;;;;6218883;22;20039;-75
2022/02/17 13:08:57;;;;;;;14.90;12.95;;;;;;;;;;6270901;22;20023;-75
2022/02/17 13:11:26;;;;;;;12.70;10.68;;;;;;;;;;6245054;22;20007;-75
2022/02/17 13:14:02;;;;;;;17.77;15.90;;;;;;;;;;6270997;22;20019;-75
2022/02/17 13:16:28;;;;;;;21.10;16.55;;;;;;;;;;6270407;22;20008;-75
2022/02/17 13:18:54;;;;;;;16.77;13.45;;;;;;;;;;6269968;22;20513;-75
2022/02/17 13:21:20;;;;;;;13.52;11.45;;;;;;;;;;6269529;22;20015;-72
2022/02/17 13:23:47;;;;;;;20.15;16.63;;;;;;;;;;6270079;22;20035;-73
2022/02/17 13:26:26;;;;;;;23.50;16.90;;;;;;;;;;6269635;22;20482;-73
2022/02/17 13:28:52;;;;;;;22.90;19.58;;;;;;;;;;6270234;22;20096;-73
2022/02/17 13:31:18;;;;;;;17.00;12.88;;;;;;;;;;6242685;22;20476;-74
2022/02/17 13:33:45;;;;;;;14.82;13.32;;;;;;;;;;6243779;22;20016;-74
2022/02/17 13:36:21;;;;;;;14.82;13.10;;;;;;;;;;6269752;22;20035;-74
2022/02/17 13:38:47;;;;;;;15.57;12.02;;;;;;;;;;6243305;22;20020;-74
2022/02/17 13:41:13;;;;;;;19.48;12.40;;;;;;;;;;6268765;22;20040;-74
2022/02/17 13:43:45;;;;;;;20.15;15.20;;;;;;;;;;6243148;22;20145;-74
2022/02/17 13:46:11;;;;;;;26.95;22.83;;;;;;;;;;6243306;22;20083;-74
2022/02/17 13:48:37;;;;;;;21.13;14.48;;;;;;;;;;6270213;22;20110;-73
2022/02/17 13:51:04;;;;;;;23.58;10.98;;;;;;;;;;6270292;22;20471;-74
2022/02/17 13:53:39;;;;;;;12.75;10.55;;;;;;;;;;6269837;22;20019;-73
2022/02/17 13:56:06;;;;;;;18.25;13.82;;;;;;;;;;6270331;22;20018;-73
2022/02/17 13:58:33;;;;;;;13.40;11.13;;;;;;;;;;6270252;22;20016;-73
2022/02/17 14:00:59;;;;;;;15.07;11.55;;;;;;;;;;6242418;22;20023;-74
2022/02/17 14:03:27;;;;;;;21.38;15.60;;;;;;;;;;6270206;22;20011;-74
2022/02/17 14:05:54;;;;;;;21.55;13.02;;;;;;;;;;6270326;22;20039;-74
2022/02/17 14:08:21;;;;;;;16.13;11.13;;;;;;;;;;6218191;22;20027;-73
2022/02/17 14:10:47;;;;;;;20.63;14.82;;;;;;;;;;6243150;22;20023;-72
2022/02/17 14:13:14;;;;;;;19.52;13.40;;;;;;;;;;6270238;22;20033;-72
2022/02/17 14:15:40;;;;;;;16.73;11.23;;;;;;;;;;6270281;22;20015;-73
2022/02/17 14:18:06;;;;;;;17.42;12.32;;;;;;;;;;6270201;22;20012;-74
2022/02/17 14:20:33;;;;;;;24.23;13.52;;;;;;;;;;6243978;22;20834;-74
2022/02/17 14:22:58;;;;;;;26.52;21.17;;;;;;;;;;6244271;22;20008;-76
2022/02/17 14:25:29;;;;;;;18.88;14.05;;;;;;;;;;6244213;22;20012;-74
2022/02/17 14:27:55;;;;;;;25.43;18.40;;;;;;;;;;6271795;22;20401;-74
2022/02/17 14:30:21;;;;;;;15.55;10.93;;;;;;;;;;6243562;22;20290;-75